Airfield :
LOGIN :

Register | Disclaimer

   EN    FR    IT 

 










Legend :    VFR   Marginal VFR   IFR   Intensive IFR   Very Intensive IFR
Visi :
Ceiling :
>= 8 km
>= 3000ft
5 to 8 km
1000 to 3000 ft
1500m to 5 km
500 to 1000 ft
800 to 1500m
200 to 500 ft
< 800m
< 200 ft
Symbols :   Thunderstorms  Fog  Heavy snow  Heavy precipitations  Wind > 20 kt
SIGMETs :     Misc.  Thunderstorms  Icing  Turbulence  Mountain Waves  Volcanic Ashes






- Airport Elevation : 764 ft
- IATA code : YEI


LTBR - Yenisehir AB

CURRENT METAR :
  • 012020Z 07005KT 9999 BKN030 BKN090 08/06 Q1012 NOSIG RMK RWY07 08004KT 050V110

EXPIRED METARs :
  • 011950Z 08006KT 9999 BKN030 BKN090 09/06 Q1013 NOSIG RMK RWY07 VRB02KT
  • 011920Z 05003KT 9999 BKN030 BKN090 08/06 Q1013 NOSIG RMK RWY07 09003KT
  • 011850Z 08005KT 020V110 9999 BKN030 BKN090 09/06 Q1013 NOSIG RMK RWY07 VRB02KT
  • 011820Z 06004KT 9999 BKN030 BKN090 08/06 Q1013 NOSIG
  • 011750Z 02005KT 9999 BKN030 BKN090 09/05 Q1013 NOSIG RMK RWY07 02004KT 360V070

TAF COR TAF LTBR
Valid from the 01 at 18:00 until the 02 at 18:00 UTC


011640Z 0118/0218 VRB02KT 9999 BKN028 BKN080
BECMG 0118/0121 SCT035 SCT100
PROB30 0203/0206 4500 BR
BECMG 0208/0211 02012KT -SHRA BKN030 BKN090
PROB40
TEMPO 0212/0216 02017G28KT 4000 TSRA SCT022CB BKN030



MET'MAP, your aeronautical weather chart ! - Copyright ORBIFLY December 2007 - Disclaimer

ORBIFLY MET'MAP TEAM :

Programming & Development : Alexandra Zaïnal
Concept & original design : Baudouin d'Aumeries
Assistance for programming : Marc-Olivier Méhu
Technical & hardware support : Manuel Goepfert

Contact : metmap@orbifly.com




SOURCES & CREDITS :

   NOAA